Time;durP1;ratioP1;P1;durP2;ratioP2;P2;SDS_P1;SDS_P2;PMS_P1;PMS_P2;Temp;Humidity;BMP_temperature;BMP_pressure;BME280_temperature;BME280_humidity;BME280_pressure;Samples;Min_cycle;Max_cycle;Signal;HPM_P1;HPM_P2
2021/04/02 00:01:53;;;;;;;9.70;6.47;;;7.60;99.90;;;;;;5016279;28;20165;-75
2021/04/02 00:04:18;;;;;;;19.55;6.45;;;7.50;99.90;;;;;;5015978;28;20177;-75
2021/04/02 00:06:44;;;;;;;13.13;7.25;;;7.40;99.90;;;;;;5016671;28;20531;-74
2021/04/02 00:09:12;;;;;;;12.05;6.45;;;7.40;99.90;;;;;;5015877;28;20574;-75
2021/04/02 00:11:41;;;;;;;13.57;6.43;;;7.30;99.90;;;;;;5016122;28;20200;-75
2021/04/02 00:14:07;;;;;;;13.82;8.10;;;7.40;99.90;;;;;;5015806;28;20721;-75
2021/04/02 00:16:33;;;;;;;14.13;7.32;;;7.40;99.90;;;;;;4998332;28;20189;-74
2021/04/02 00:18:59;;;;;;;14.02;8.07;;;7.40;99.90;;;;;;5015601;28;20172;-75
2021/04/02 00:21:24;;;;;;;16.90;7.70;;;7.30;99.90;;;;;;5015872;28;20188;-74
2021/04/02 00:23:50;;;;;;;14.75;7.30;;;7.30;99.90;;;;;;5015938;28;20184;-75
2021/04/02 00:26:21;;;;;;;16.13;7.45;;;7.40;99.90;;;;;;5016016;28;20524;-75
2021/04/02 00:28:49;;;;;;;13.40;6.85;;;7.40;99.90;;;;;;5015296;28;20169;-75
2021/04/02 00:31:15;;;;;;;9.52;7.53;;;7.30;99.90;;;;;;5015513;28;20183;-75
2021/04/02 00:33:41;;;;;;;14.73;7.50;;;7.30;99.90;;;;;;5015873;28;20204;-75
2021/04/02 00:36:07;;;;;;;19.42;7.38;;;7.20;99.90;;;;;;5015995;28;20180;-75
2021/04/02 00:38:33;;;;;;;17.48;7.45;;;7.10;99.90;;;;;;5015204;28;20172;-75
2021/04/02 00:41:05;;;;;;;15.40;7.75;;;7.20;99.90;;;;;;5015934;28;20530;-75
2021/04/02 00:43:40;;;;;;;13.13;7.35;;;7.10;99.90;;;;;;5015498;28;20204;-75
2021/04/02 00:46:07;;;;;;;13.68;7.70;;;7.00;99.90;;;;;;5015418;28;20172;-75
2021/04/02 00:48:33;;;;;;;19.23;8.52;;;6.90;99.90;;;;;;4997255;28;20183;-74
2021/04/02 00:51:05;;;;;;;19.88;8.50;;;6.90;99.90;;;;;;4981672;28;20172;-75
2021/04/02 00:53:36;;;;;;;18.23;8.20;;;6.90;99.90;;;;;;5015416;28;20215;-75
2021/04/02 00:56:07;;;;;;;14.40;7.63;;;7.00;99.90;;;;;;5015355;28;20173;-75
2021/04/02 00:58:35;;;;;;;13.82;7.32;;;7.00;99.90;;;;;;5014953;28;20180;-75
2021/04/02 01:01:02;;;;;;;14.52;7.80;;;7.20;99.90;;;;;;4978295;28;20173;-76
2021/04/02 01:03:28;;;;;;;12.65;7.55;;;7.30;99.90;;;;;;4978181;28;20219;-75
2021/04/02 01:05:55;;;;;;;17.30;7.85;;;7.30;99.90;;;;;;4995643;28;20253;-75
2021/04/02 01:08:23;;;;;;;16.48;7.60;;;7.20;99.90;;;;;;5007589;28;20184;-75
2021/04/02 01:10:52;;;;;;;18.65;8.05;;;7.00;99.90;;;;;;4992768;28;20185;-75
2021/04/02 01:13:29;;;;;;;22.00;8.50;;;7.00;99.90;;;;;;4993219;28;20182;-75
2021/04/02 01:16:03;;;;;;;11.63;7.25;;;7.00;99.90;;;;;;4992934;28;20193;-75
2021/04/02 01:19:25;;;;;;;12.98;7.82;;;6.90;99.90;;;;;;4993067;28;20185;-75
2021/04/02 01:22:08;;;;;;;15.93;8.45;;;7.00;99.90;;;;;;4900031;29;20586;-75
2021/04/02 01:24:52;;;;;;;18.13;8.70;;;6.90;99.90;;;;;;4916293;29;20188;-75
2021/04/02 01:27:33;;;;;;;15.53;7.83;;;6.70;99.90;;;;;;4979521;28;20630;-75
2021/04/02 01:30:09;;;;;;;16.45;8.23;;;6.60;99.90;;;;;;4992717;28;20188;-75
2021/04/02 01:32:45;;;;;;;11.98;7.53;;;6.60;99.90;;;;;;4992959;28;20179;-75
2021/04/02 01:35:17;;;;;;;15.95;8.45;;;6.60;99.90;;;;;;4992872;28;20267;-75
2021/04/02 01:37:47;;;;;;;19.38;8.48;;;6.60;99.90;;;;;;4976267;28;20173;-75
2021/04/02 01:40:14;;;;;;;17.77;8.27;;;6.70;99.90;;;;;;4992062;28;20365;-75
2021/04/02 01:42:42;;;;;;;13.55;8.27;;;6.70;99.90;;;;;;5010882;28;20651;-75
2021/04/02 01:45:10;;;;;;;20.73;8.63;;;6.60;99.90;;;;;;5014663;28;20204;-74
2021/04/02 01:47:37;;;;;;;14.90;8.10;;;6.50;99.90;;;;;;4996310;28;20649;-75
2021/04/02 01:50:04;;;;;;;19.83;8.60;;;6.40;99.90;;;;;;5013493;28;20172;-74
2021/04/02 01:52:31;;;;;;;16.90;8.40;;;6.20;99.90;;;;;;5014099;28;20200;-74
2021/04/02 01:54:58;;;;;;;13.02;7.90;;;6.20;99.90;;;;;;4996593;28;20215;-75
2021/04/02 01:57:25;;;;;;;10.75;8.20;;;6.20;99.90;;;;;;5013992;28;20177;-75
2021/04/02 01:59:52;;;;;;;24.70;8.50;;;6.40;99.90;;;;;;5013982;28;20205;-75
2021/04/02 02:02:18;;;;;;;22.67;9.57;;;6.50;99.90;;;;;;5014053;28;20227;-75
2021/04/02 02:04:46;;;;;;;17.02;8.30;;;6.30;99.90;;;;;;4996237;28;20607;-75
2021/04/02 02:07:12;;;;;;;20.17;8.63;;;6.10;99.90;;;;;;5014002;28;20172;-75
2021/04/02 02:09:41;;;;;;;20.83;8.47;;;6.10;99.90;;;;;;4993286;28;20173;-76
2021/04/02 02:12:11;;;;;;;20.87;9.03;;;6.00;99.90;;;;;;4996475;28;20173;-75
2021/04/02 02:14:39;;;;;;;15.03;8.73;;;6.20;99.90;;;;;;5014020;28;20284;-75
2021/04/02 02:17:09;;;;;;;24.38;9.32;;;6.10;99.90;;;;;;5013386;28;20268;-75
2021/04/02 02:19:38;;;;;;;15.37;8.70;;;6.10;99.90;;;;;;4994388;28;20169;-75
2021/04/02 02:22:10;;;;;;;22.50;9.77;;;6.20;99.90;;;;;;4993370;28;20189;-75
2021/04/02 02:24:37;;;;;;;18.30;10.53;;;6.20;99.90;;;;;;4994382;28;20239;-75
2021/04/02 02:27:06;;;;;;;17.47;9.27;;;6.10;99.90;;;;;;4995627;28;20576;-75
2021/04/02 02:29:32;;;;;;;16.40;8.77;;;6.00;99.90;;;;;;4995561;28;20180;-75
2021/04/02 02:31:58;;;;;;;20.83;9.60;;;5.90;99.90;;;;;;5013650;28;20207;-75
2021/04/02 02:34:24;;;;;;;16.47;9.17;;;6.10;99.90;;;;;;5013768;28;20286;-75
2021/04/02 02:36:50;;;;;;;17.70;9.30;;;6.20;99.90;;;;;;4995603;28;20181;-75
2021/04/02 02:39:17;;;;;;;14.77;9.17;;;6.30;99.90;;;;;;5013597;28;20182;-75
2021/04/02 02:41:43;;;;;;;27.13;9.17;;;6.40;99.90;;;;;;5013499;28;20235;-75
2021/04/02 02:44:09;;;;;;;17.93;9.10;;;6.40;99.90;;;;;;5012323;28;20187;-74
2021/04/02 02:46:35;;;;;;;15.67;9.70;;;6.30;99.90;;;;;;5012681;28;20615;-75
2021/04/02 02:49:15;;;;;;;19.03;9.60;;;6.30;99.90;;;;;;5013280;28;20172;-75
2021/04/02 02:51:43;;;;;;;20.13;9.40;;;6.40;99.90;;;;;;5013374;28;20672;-74
2021/04/02 02:54:13;;;;;;;26.03;8.83;;;6.40;99.90;;;;;;5013390;28;20264;-74
2021/04/02 02:56:42;;;;;;;15.02;8.57;;;6.40;99.90;;;;;;5013164;28;20676;-75
2021/04/02 02:59:13;;;;;;;26.67;10.03;;;6.40;99.90;;;;;;4996309;28;20181;-75
2021/04/02 03:01:40;;;;;;;22.97;9.60;;;6.30;99.90;;;;;;5014694;28;20164;-74
2021/04/02 03:04:07;;;;;;;23.90;9.70;;;6.40;99.90;;;;;;5014673;28;20168;-74
2021/04/02 03:06:37;;;;;;;20.93;9.10;;;6.50;99.90;;;;;;5012959;28;20183;-75
2021/04/02 03:09:05;;;;;;;14.43;9.83;;;6.40;99.90;;;;;;5012858;28;20176;-74
2021/04/02 03:11:33;;;;;;;20.43;8.97;;;6.40;99.90;;;;;;5012056;28;20637;-74
2021/04/02 03:13:59;;;;;;;23.47;9.77;;;6.40;99.90;;;;;;4995426;28;20269;-74
2021/04/02 03:16:26;;;;;;;17.73;9.70;;;6.40;99.90;;;;;;5013417;28;20589;-74
2021/04/02 03:18:56;;;;;;;19.13;9.63;;;6.60;99.90;;;;;;5012887;28;20200;-75
2021/04/02 03:21:21;;;;;;;15.57;9.90;;;6.50;99.90;;;;;;5012566;28;20611;-75
2021/04/02 03:23:49;;;;;;;20.10;9.30;;;6.50;99.90;;;;;;5013130;28;20180;-74
2021/04/02 03:26:16;;;;;;;22.27;10.13;;;6.40;99.90;;;;;;5013569;28;20625;-75
2021/04/02 03:28:43;;;;;;;21.40;9.43;;;6.30;99.90;;;;;;5013061;28;20177;-75
2021/04/02 03:31:11;;;;;;;25.75;9.70;;;6.40;99.90;;;;;;5012918;28;20177;-74
2021/04/02 03:33:41;;;;;;;15.70;8.17;;;6.30;99.90;;;;;;5016170;28;20193;-75
2021/04/02 03:36:11;;;;;;;14.20;8.40;;;6.10;99.90;;;;;;4998879;28;20267;-74
2021/04/02 03:38:40;;;;;;;22.07;9.43;;;6.10;99.90;;;;;;5016476;28;20173;-74
2021/04/02 03:41:11;;;;;;;26.53;9.33;;;6.00;99.90;;;;;;4998849;28;20172;-75
2021/04/02 03:43:38;;;;;;;16.77;8.50;;;6.20;99.90;;;;;;5016061;28;20188;-74
2021/04/02 03:46:04;;;;;;;18.33;7.33;;;6.10;99.90;;;;;;5016338;28;20215;-75
2021/04/02 03:48:36;;;;;;;17.70;7.63;;;6.10;99.90;;;;;;5016102;28;20260;-74
2021/04/02 03:51:04;;;;;;;14.57;7.37;;;6.00;99.90;;;;;;4998811;28;20231;-75
2021/04/02 03:53:43;;;;;;;22.30;7.40;;;6.00;99.90;;;;;;5016348;28;20173;-74
2021/04/02 03:56:14;;;;;;;15.50;8.10;;;5.90;99.90;;;;;;4999113;28;20634;-75
2021/04/02 03:58:44;;;;;;;19.10;8.20;;;5.80;99.90;;;;;;5016250;28;20231;-74
2021/04/02 04:01:15;;;;;;;10.50;7.27;;;5.70;99.90;;;;;;5016724;28;20235;-74
2021/04/02 04:03:44;;;;;;;18.63;8.60;;;5.60;99.90;;;;;;4998374;28;20192;-75
2021/04/02 04:06:15;;;;;;;16.73;8.40;;;5.70;99.90;;;;;;5016247;28;20177;-74
2021/04/02 04:08:42;;;;;;;18.47;7.47;;;5.80;99.90;;;;;;4998246;28;20199;-75
2021/04/02 04:11:10;;;;;;;18.53;8.07;;;5.90;99.90;;;;;;5016142;28;20553;-74
2021/04/02 04:13:38;;;;;;;19.90;8.23;;;6.00;99.90;;;;;;5015873;28;20180;-74
2021/04/02 04:16:06;;;;;;;21.93;7.83;;;5.80;99.90;;;;;;5015750;28;20212;-75
2021/04/02 04:18:33;;;;;;;19.03;7.10;;;5.60;99.90;;;;;;4998062;28;20529;-74
2021/04/02 04:21:02;;;;;;;18.60;6.93;;;5.40;99.90;;;;;;5015832;28;20189;-74
2021/04/02 04:23:29;;;;;;;16.93;7.20;;;5.20;99.90;;;;;;5015868;28;20180;-74
2021/04/02 04:25:58;;;;;;;15.33;6.47;;;5.20;99.90;;;;;;5016000;28;20172;-74
2021/04/02 04:28:25;;;;;;;17.27;6.53;;;5.20;99.90;;;;;;5015577;28;20173;-75
2021/04/02 04:30:53;;;;;;;14.17;6.27;;;5.20;99.90;;;;;;5015961;28;20173;-74
2021/04/02 04:33:20;;;;;;;21.13;7.13;;;5.20;99.90;;;;;;5015522;28;20227;-74
2021/04/02 04:35:46;;;;;;;24.03;6.90;;;5.30;99.90;;;;;;5015806;28;20168;-75
2021/04/02 04:38:13;;;;;;;18.90;6.57;;;5.30;99.90;;;;;;4997931;28;20173;-74
2021/04/02 04:40:39;;;;;;;16.23;6.87;;;5.40;99.90;;;;;;4998418;28;20200;-74
2021/04/02 04:43:09;;;;;;;15.17;5.90;;;5.20;99.90;;;;;;5014988;28;20530;-75
2021/04/02 04:45:36;;;;;;;14.90;6.70;;;5.30;99.90;;;;;;4997609;28;20621;-75
2021/04/02 04:48:01;;;;;;;19.20;7.20;;;5.30;99.90;;;;;;5015476;28;20177;-75
2021/04/02 04:50:28;;;;;;;20.03;5.80;;;5.20;99.90;;;;;;5015530;28;20524;-75
2021/04/02 04:53:00;;;;;;;15.43;6.27;;;5.20;99.90;;;;;;5015195;28;20260;-74
2021/04/02 04:55:28;;;;;;;10.10;5.57;;;5.20;99.90;;;;;;5015145;28;20207;-74
2021/04/02 04:57:56;;;;;;;10.10;5.60;;;5.20;99.90;;;;;;5015129;28;20253;-74
2021/04/02 05:00:23;;;;;;;13.13;5.73;;;5.20;99.90;;;;;;5015108;28;20177;-75
2021/04/02 05:02:51;;;;;;;15.17;6.07;;;5.10;99.90;;;;;;4997422;28;20227;-74
2021/04/02 05:05:26;;;;;;;18.57;6.23;;;5.10;99.90;;;;;;5015193;28;20172;-75
2021/04/02 05:07:53;;;;;;;20.07;5.80;;;5.20;99.90;;;;;;5014983;28;20534;-75
2021/04/02 05:10:20;;;;;;;12.00;5.30;;;5.10;99.90;;;;;;5015312;28;20169;-74
2021/04/02 05:12:47;;;;;;;10.47;5.77;;;5.20;99.90;;;;;;5015087;28;20177;-75
2021/04/02 05:15:15;;;;;;;11.20;5.43;;;5.20;99.90;;;;;;5014896;28;20606;-74
2021/04/02 05:17:42;;;;;;;17.73;5.47;;;5.30;99.90;;;;;;5014666;28;20184;-74
2021/04/02 05:20:09;;;;;;;8.83;5.23;;;5.20;99.90;;;;;;5014713;28;20173;-76
2021/04/02 05:22:35;;;;;;;9.87;5.20;;;5.20;99.90;;;;;;4997219;28;20196;-74
2021/04/02 05:25:01;;;;;;;14.50;5.67;;;5.30;99.90;;;;;;5014433;28;20202;-75
2021/04/02 05:27:26;;;;;;;7.63;5.20;;;5.30;99.90;;;;;;4996783;28;20180;-74
2021/04/02 05:29:53;;;;;;;22.73;6.63;;;5.40;99.90;;;;;;5012778;28;20179;-75
2021/04/02 05:32:18;;;;;;;12.40;4.93;;;5.50;99.90;;;;;;5014681;28;20259;-74
2021/04/02 05:34:44;;;;;;;12.93;5.03;;;5.60;99.90;;;;;;5014221;28;20307;-74
2021/04/02 05:37:10;;;;;;;17.07;5.27;;;5.60;99.90;;;;;;4996433;28;20185;-74
2021/04/02 05:39:35;;;;;;;10.57;4.93;;;5.50;99.90;;;;;;5014518;28;20173;-75
2021/04/02 05:42:05;;;;;;;9.77;5.10;;;5.20;99.90;;;;;;5014345;28;20176;-74
2021/04/02 05:44:34;;;;;;;11.70;4.63;;;5.10;99.90;;;;;;4996544;28;20185;-74
2021/04/02 05:47:03;;;;;;;15.13;4.73;;;5.10;99.90;;;;;;5014479;28;20502;-75
2021/04/02 05:49:29;;;;;;;9.43;4.67;;;5.30;99.90;;;;;;5014142;28;20187;-75
2021/04/02 05:51:57;;;;;;;12.10;5.00;;;5.40;99.90;;;;;;4996396;28;20582;-74
2021/04/02 05:54:37;;;;;;;23.87;5.47;;;5.60;99.90;;;;;;5013838;28;20211;-74
2021/04/02 05:57:04;;;;;;;17.87;5.50;;;5.90;99.90;;;;;;4996414;28;20173;-75
2021/04/02 05:59:30;;;;;;;16.33;4.55;;;6.00;99.90;;;;;;5014225;28;20165;-75
2021/04/02 06:01:56;;;;;;;6.87;4.30;;;5.90;99.90;;;;;;5014025;28;20251;-75
2021/04/02 06:04:22;;;;;;;15.27;4.33;;;5.90;99.90;;;;;;5013756;28;20181;-75
2021/04/02 06:06:49;;;;;;;11.67;4.47;;;5.90;99.90;;;;;;4996232;28;20226;-75
2021/04/02 06:09:15;;;;;;;10.07;4.70;;;6.00;99.90;;;;;;5013840;28;20179;-75
2021/04/02 06:11:41;;;;;;;16.13;4.37;;;6.30;99.90;;;;;;5014116;28;20176;-74
2021/04/02 06:14:08;;;;;;;17.27;4.90;;;6.70;99.90;;;;;;5013748;28;20204;-74
2021/04/02 06:16:34;;;;;;;12.23;4.60;;;7.00;99.90;;;;;;5013936;28;20219;-74
2021/04/02 06:19:10;;;;;;;9.15;4.50;;;7.30;99.90;;;;;;5013833;28;20173;-75
2021/04/02 06:21:48;;;;;;;16.80;4.13;;;7.50;99.90;;;;;;5013997;28;20331;-76
2021/04/02 06:24:16;;;;;;;9.90;4.55;;;7.50;99.90;;;;;;5013544;28;20168;-75
2021/04/02 06:27:02;;;;;;;15.45;4.85;;;7.30;99.90;;;;;;5013972;28;20165;-74
2021/04/02 06:29:29;;;;;;;17.42;4.65;;;7.10;99.90;;;;;;5013667;28;20178;-74
2021/04/02 06:31:56;;;;;;;13.90;4.45;;;6.90;99.90;;;;;;5013801;28;20217;-74
2021/04/02 06:34:25;;;;;;;9.43;4.20;;;6.90;99.90;;;;;;5013556;28;20347;-74
2021/04/02 06:36:51;;;;;;;17.30;4.83;;;6.80;99.90;;;;;;4995998;28;20184;-74
2021/04/02 06:39:19;;;;;;;8.97;4.33;;;6.70;99.90;;;;;;5011418;28;20176;-74
2021/04/02 06:41:53;;;;;;;13.77;4.38;;;6.80;99.90;;;;;;5013452;28;20176;-75
2021/04/02 06:44:22;;;;;;;13.17;4.27;;;6.70;99.90;;;;;;5013579;28;20180;-74
2021/04/02 06:46:48;;;;;;;17.03;4.97;;;6.60;99.90;;;;;;5013197;28;20180;-74
2021/04/02 06:49:19;;;;;;;16.60;4.73;;;6.40;99.90;;;;;;4979733;28;20537;-75
2021/04/02 06:51:48;;;;;;;18.27;5.20;;;6.50;99.90;;;;;;5013122;28;20177;-74
2021/04/02 06:54:15;;;;;;;12.90;5.10;;;7.00;99.90;;;;;;5013280;28;20231;-75
2021/04/02 06:57:04;;;;;;;13.20;3.90;;;7.40;99.90;;;;;;5013212;28;20254;-75
2021/04/02 06:59:33;;;;;;;9.48;4.40;;;7.40;99.90;;;;;;5011830;28;20177;-75
2021/04/02 07:02:01;;;;;;;12.25;4.50;;;7.30;99.90;;;;;;5012270;28;20165;-75
2021/04/02 07:04:27;;;;;;;16.60;4.40;;;7.50;99.90;;;;;;5013209;28;20227;-74
2021/04/02 07:06:54;;;;;;;7.80;4.03;;;7.40;99.90;;;;;;4995672;28;20176;-75
2021/04/02 07:09:22;;;;;;;8.73;4.57;;;7.80;99.90;;;;;;5017592;28;20183;-75
2021/04/02 07:11:52;;;;;;;11.32;4.40;;;7.50;99.90;;;;;;4999905;28;20169;-74
2021/04/02 07:14:19;;;;;;;11.85;4.03;;;7.70;99.90;;;;;;5016537;28;20270;-75
2021/04/02 07:16:45;;;;;;;9.10;3.58;;;7.90;99.90;;;;;;5016968;28;20181;-75
2021/04/02 07:19:12;;;;;;;9.60;4.32;;;7.90;99.90;;;;;;5016625;28;20696;-75
2021/04/02 07:21:38;;;;;;;13.85;4.65;;;8.10;99.90;;;;;;5017223;28;20227;-75
2021/04/02 07:24:04;;;;;;;9.60;4.15;;;8.50;99.90;;;;;;4999585;28;20633;-75
2021/04/02 07:26:30;;;;;;;10.60;3.80;;;8.50;99.90;;;;;;5016735;28;20176;-75
2021/04/02 07:28:56;;;;;;;9.75;3.80;;;8.30;99.90;;;;;;5017034;28;20173;-74
2021/04/02 07:31:23;;;;;;;18.52;3.50;;;8.20;99.90;;;;;;5017073;28;20231;-75
2021/04/02 07:33:49;;;;;;;13.20;4.00;;;8.00;99.90;;;;;;4998992;28;20204;-76
2021/04/02 07:36:17;;;;;;;5.57;3.70;;;8.40;99.90;;;;;;5017064;28;20545;-75
2021/04/02 07:38:49;;;;;;;11.77;4.00;;;9.00;99.90;;;;;;5016940;28;20165;-74
2021/04/02 07:41:17;;;;;;;11.50;3.72;;;9.40;99.90;;;;;;5016706;28;20645;-74
2021/04/02 07:43:49;;;;;;;9.75;3.17;;;9.70;99.90;;;;;;4999087;28;20173;-75
2021/04/02 07:46:18;;;;;;;16.33;3.70;;;9.70;99.90;;;;;;4998749;28;20200;-75
2021/04/02 07:48:48;;;;;;;9.27;3.15;;;10.00;99.90;;;;;;5016238;28;20172;-75
2021/04/02 07:51:13;;;;;;;13.45;3.30;;;10.20;99.90;;;;;;5016775;28;20240;-76
2021/04/02 07:53:43;;;;;;;7.63;3.10;;;11.10;99.90;;;;;;5012167;28;20569;-75
2021/04/02 07:56:16;;;;;;;9.88;3.45;;;10.60;99.90;;;;;;5016668;28;20180;-74
2021/04/02 07:58:50;;;;;;;12.00;3.85;;;11.10;99.90;;;;;;5008849;28;20170;-75
2021/04/02 08:01:21;;;;;;;10.38;3.20;;;11.30;99.90;;;;;;5005499;28;20212;-75
2021/04/02 08:03:49;;;;;;;8.45;3.10;;;10.90;99.90;;;;;;5016457;28;20173;-75
2021/04/02 08:06:37;;;;;;;10.07;2.80;;;10.20;99.90;;;;;;5015200;28;20176;-74
2021/04/02 08:09:06;;;;;;;9.40;3.05;;;10.10;99.90;;;;;;4998848;28;20207;-75
2021/04/02 08:11:57;;;;;;;12.90;3.13;;;10.60;99.90;;;;;;5015739;28;20169;-75
2021/04/02 08:14:34;;;;;;;11.75;3.03;;;9.90;99.90;;;;;;4998136;28;20196;-76
2021/04/02 08:17:00;;;;;;;12.70;3.58;;;10.10;99.90;;;;;;5016239;28;20613;-75
2021/04/02 08:19:39;;;;;;;10.68;3.60;;;12.70;99.90;;;;;;5012001;28;20272;-75
2021/04/02 08:22:13;;;;;;;6.43;2.72;;;13.50;99.90;;;;;;5002359;28;20243;-75
2021/04/02 08:24:41;;;;;;;16.13;3.13;;;14.10;99.90;;;;;;5017694;28;20185;-75
2021/04/02 08:27:08;;;;;;;5.80;2.80;;;16.20;99.90;;;;;;5014897;28;20214;-75
2021/04/02 08:29:35;;;;;;;11.35;3.55;;;15.50;99.90;;;;;;4995232;28;20176;-75
2021/04/02 08:32:08;;;;;;;9.43;3.83;;;14.70;99.90;;;;;;5013018;28;20260;-75
2021/04/02 08:34:35;;;;;;;8.70;3.30;;;14.90;99.90;;;;;;5013900;28;20731;-76
2021/04/02 08:37:04;;;;;;;13.10;3.10;;;14.20;99.90;;;;;;5015744;28;20568;-76
2021/04/02 08:39:30;;;;;;;9.27;2.65;;;13.90;99.90;;;;;;5014693;28;20175;-75
2021/04/02 08:42:02;;;;;;;10.77;2.90;;;13.00;99.90;;;;;;5014229;28;20645;-77
2021/04/02 08:44:32;;;;;;;9.35;2.67;;;11.70;99.90;;;;;;4991768;28;20196;-77
2021/04/02 08:46:59;;;;;;;7.60;2.42;;;11.50;99.90;;;;;;5001250;28;20174;-75
2021/04/02 08:49:26;;;;;;;14.15;3.13;;;11.40;99.90;;;;;;5011019;28;20606;-75
2021/04/02 08:51:52;;;;;;;10.95;3.58;;;11.90;99.90;;;;;;5014091;28;20169;-75
2021/04/02 08:54:20;;;;;;;6.55;2.88;;;11.80;99.90;;;;;;5011936;28;20236;-75
2021/04/02 08:56:47;;;;;;;11.95;2.85;;;12.20;99.90;;;;;;4996210;28;20675;-76
2021/04/02 08:59:13;;;;;;;9.15;2.42;;;11.30;99.90;;;;;;5012700;28;20188;-75
2021/04/02 09:01:47;;;;;;;6.40;2.95;;;10.90;99.90;;;;;;4982559;28;20660;-76
2021/04/02 09:04:15;;;;;;;7.72;2.58;;;11.80;99.90;;;;;;5000449;28;20629;-76
2021/04/02 09:06:42;;;;;;;9.85;3.20;;;13.70;99.90;;;;;;5013931;28;20176;-78
2021/04/02 09:09:21;;;;;;;6.07;2.90;;;13.30;99.90;;;;;;5013687;28;20541;-75
2021/04/02 09:11:49;;;;;;;13.65;2.72;;;15.50;99.90;;;;;;4996539;28;20633;-75
2021/04/02 09:14:15;;;;;;;12.73;2.72;;;19.00;99.90;;;;;;4992160;28;20208;-75
2021/04/02 09:16:43;;;;;;;5.88;1.98;;;21.80;98.10;;;;;;5014476;28;20546;-75
2021/04/02 09:19:10;;;;;;;13.00;2.00;;;21.30;94.30;;;;;;4996354;28;20176;-75
2021/04/02 09:21:36;;;;;;;2.45;1.58;;;20.70;94.90;;;;;;4994535;28;20599;-76
2021/04/02 09:24:02;;;;;;;6.63;2.47;;;17.90;96.70;;;;;;5011604;28;20212;-76
2021/04/02 09:26:29;;;;;;;8.48;3.10;;;14.80;99.90;;;;;;5014166;28;20629;-76
2021/04/02 09:29:01;;;;;;;12.27;5.50;;;15.60;99.90;;;;;;5012011;28;20608;-76
2021/04/02 09:31:32;;;;;;;9.60;5.00;;;17.30;99.90;;;;;;5013295;28;20693;-76
2021/04/02 09:34:06;;;;;;;12.77;3.70;;;15.80;99.90;;;;;;4997051;28;20216;-76
2021/04/02 09:36:34;;;;;;;8.07;1.98;;;17.80;99.90;;;;;;5006210;28;20185;-76
2021/04/02 09:39:12;;;;;;;8.25;2.40;;;17.90;99.20;;;;;;4997664;28;20193;-76
2021/04/02 09:41:43;;;;;;;5.45;2.10;;;17.00;99.90;;;;;;5013348;28;20255;-75
2021/04/02 09:44:16;;;;;;;9.30;1.98;;;17.10;99.90;;;;;;4996036;28;20514;-75
2021/04/02 09:46:44;;;;;;;5.57;2.33;;;16.40;99.90;;;;;;4996226;28;20185;-75
2021/04/02 09:49:18;;;;;;;9.43;2.47;;;14.60;99.90;;;;;;5012848;28;20181;-76
2021/04/02 09:51:52;;;;;;;5.40;2.28;;;13.80;99.90;;;;;;5013687;28;20167;-75
2021/04/02 09:54:19;;;;;;;8.15;2.10;;;13.70;99.90;;;;;;5013419;28;20196;-75
2021/04/02 09:56:46;;;;;;;8.20;2.17;;;13.90;99.90;;;;;;4994724;28;20188;-76
2021/04/02 09:59:13;;;;;;;5.63;2.38;;;14.70;99.90;;;;;;5013517;28;20180;-76
2021/04/02 10:01:40;;;;;;;3.92;1.90;;;16.70;99.90;;;;;;5013921;28;20255;-76
2021/04/02 10:04:06;;;;;;;7.00;2.30;;;17.10;99.10;;;;;;5013821;28;20226;-75
2021/04/02 10:06:33;;;;;;;5.55;2.20;;;17.00;99.20;;;;;;4995085;28;20169;-75
2021/04/02 10:08:59;;;;;;;4.18;1.77;;;17.50;98.50;;;;;;5014049;28;20164;-75
2021/04/02 10:11:25;;;;;;;9.40;2.25;;;17.70;98.40;;;;;;5013143;28;20192;-76
2021/04/02 10:13:52;;;;;;;9.20;1.88;;;16.30;99.80;;;;;;4978699;28;20173;-77
2021/04/02 10:16:18;;;;;;;10.30;2.30;;;19.30;98.10;;;;;;5013826;28;20173;-76
2021/04/02 10:18:49;;;;;;;7.70;1.73;;;23.80;92.30;;;;;;5011740;28;20199;-77
2021/04/02 10:21:16;;;;;;;5.78;1.85;;;24.40;86.80;;;;;;4994659;28;20211;-77
2021/04/02 10:23:42;;;;;;;5.82;2.00;;;23.50;83.00;;;;;;4995133;28;20537;-76
2021/04/02 10:26:08;;;;;;;5.53;1.90;;;23.10;85.70;;;;;;4996031;28;20214;-76
2021/04/02 10:28:33;;;;;;;5.10;1.48;;;21.20;90.30;;;;;;4991641;28;20641;-76
2021/04/02 10:30:59;;;;;;;9.80;1.77;;;23.10;86.50;;;;;;5011798;28;20207;-76
2021/04/02 10:33:26;;;;;;;6.85;1.95;;;24.80;81.60;;;;;;4995969;28;20184;-77
2021/04/02 10:35:52;;;;;;;6.20;2.28;;;22.70;85.30;;;;;;5010969;28;20204;-77
2021/04/02 10:38:18;;;;;;;6.38;2.20;;;21.00;87.80;;;;;;4995071;28;20226;-77
2021/04/02 10:40:44;;;;;;;10.75;2.25;;;18.50;91.60;;;;;;4995685;28;20263;-76
2021/04/02 10:43:10;;;;;;;9.02;2.95;;;17.10;93.60;;;;;;5010345;28;20180;-78
2021/04/02 10:45:36;;;;;;;7.53;2.45;;;16.50;94.10;;;;;;5011730;28;20185;-76
2021/04/02 10:48:03;;;;;;;4.00;1.90;;;15.90;95.20;;;;;;4994823;28;20185;-77
2021/04/02 10:50:29;;;;;;;9.00;2.22;;;16.90;95.20;;;;;;5012411;28;20172;-76
2021/04/02 10:52:55;;;;;;;6.68;1.95;;;18.60;91.80;;;;;;5010666;28;20185;-77
2021/04/02 10:55:21;;;;;;;7.00;1.92;;;19.20;90.50;;;;;;4994416;28;20213;-77
2021/04/02 10:57:47;;;;;;;4.53;2.00;;;21.60;87.10;;;;;;5011990;28;20181;-78
2021/04/02 11:00:15;;;;;;;3.95;1.73;;;21.40;85.10;;;;;;4994634;28;20231;-78
2021/04/02 11:02:41;;;;;;;2.70;1.83;;;23.60;85.60;;;;;;5013127;28;20183;-73
2021/04/02 11:05:08;;;;;;;10.45;2.00;;;25.80;79.00;;;;;;5013167;28;20704;-75
2021/04/02 11:07:34;;;;;;;9.48;1.92;;;26.10;76.50;;;;;;5012109;28;20264;-76
2021/04/02 11:10:00;;;;;;;5.50;2.05;;;27.60;75.20;;;;;;4995602;28;20259;-74
2021/04/02 11:12:28;;;;;;;7.38;1.83;;;29.10;69.90;;;;;;5013034;28;20634;-75
2021/04/02 11:14:55;;;;;;;2.28;1.67;;;25.70;69.60;;;;;;5011615;28;20203;-75
2021/04/02 11:17:22;;;;;;;4.50;2.00;;;22.00;79.80;;;;;;4992968;28;20188;-76
2021/04/02 11:19:49;;;;;;;4.95;1.92;;;20.20;82.40;;;;;;4993223;28;20176;-77
2021/04/02 11:22:14;;;;;;;8.55;1.88;;;21.00;83.20;;;;;;5013345;28;20740;-75
2021/04/02 11:24:40;;;;;;;6.00;1.90;;;20.40;82.10;;;;;;5012757;28;20260;-76
2021/04/02 11:27:06;;;;;;;5.05;1.90;;;18.70;85.20;;;;;;4993724;28;20185;-76
2021/04/02 11:29:32;;;;;;;5.35;1.83;;;17.60;90.00;;;;;;5012110;28;20208;-76
2021/04/02 11:31:57;;;;;;;10.63;2.08;;;17.40;90.20;;;;;;4994197;28;20599;-76
2021/04/02 11:34:23;;;;;;;2.75;1.77;;;16.20;91.10;;;;;;5012323;28;20208;-75
2021/04/02 11:36:48;;;;;;;10.75;1.80;;;17.80;90.20;;;;;;5013200;28;20197;-76
2021/04/02 11:39:14;;;;;;;7.65;2.42;;;19.70;85.00;;;;;;4977047;28;20268;-75
2021/04/02 11:41:40;;;;;;;9.20;2.33;;;23.50;79.00;;;;;;4994690;28;20536;-75
2021/04/02 11:44:06;;;;;;;7.43;1.83;;;25.30;71.40;;;;;;5013263;28;20173;-76
2021/04/02 11:46:32;;;;;;;5.90;2.17;;;23.70;72.70;;;;;;5011428;28;20188;-76
2021/04/02 11:48:58;;;;;;;4.93;2.03;;;23.40;75.60;;;;;;4994006;28;20187;-76
2021/04/02 11:51:23;;;;;;;10.23;2.50;;;23.40;71.50;;;;;;5012482;28;20177;-75
2021/04/02 11:53:49;;;;;;;6.85;2.92;;;20.60;80.40;;;;;;5013043;28;20637;-76
2021/04/02 11:56:15;;;;;;;9.10;2.95;;;19.70;86.10;;;;;;5015603;28;20183;-76
2021/04/02 11:58:40;;;;;;;6.15;3.05;;;20.60;82.50;;;;;;5015654;28;20185;-75
2021/04/02 12:01:06;;;;;;;9.43;2.78;;;19.70;84.20;;;;;;5015502;28;20599;-75
2021/04/02 12:03:31;;;;;;;9.65;3.17;;;18.70;87.30;;;;;;4996989;28;20604;-75
2021/04/02 12:05:57;;;;;;;6.78;2.78;;;17.60;90.10;;;;;;5016369;28;20168;-75
2021/04/02 12:08:23;;;;;;;10.00;3.78;;;17.50;91.20;;;;;;4997597;28;20229;-77
2021/04/02 12:10:49;;;;;;;10.07;3.17;;;18.20;90.20;;;;;;5015326;28;20181;-77
2021/04/02 12:13:14;;;;;;;11.30;4.15;;;19.60;87.90;;;;;;5014922;28;20223;-75
2021/04/02 12:15:40;;;;;;;8.02;3.70;;;18.40;87.40;;;;;;4998665;28;20200;-75
2021/04/02 12:18:06;;;;;;;13.10;4.55;;;18.30;89.80;;;;;;5015726;28;20184;-76
2021/04/02 12:20:32;;;;;;;9.13;3.65;;;20.10;88.00;;;;;;4996802;28;20193;-75
2021/04/02 12:22:58;;;;;;;7.20;4.35;;;21.90;84.90;;;;;;4998178;28;20184;-76
2021/04/02 12:25:24;;;;;;;11.50;4.30;;;21.00;82.80;;;;;;4997624;28;20181;-75
2021/04/02 12:27:49;;;;;;;8.90;3.83;;;22.20;82.30;;;;;;5013802;28;20261;-75
2021/04/02 12:30:16;;;;;;;6.53;4.20;;;21.70;80.30;;;;;;5015179;28;20187;-76
2021/04/02 12:32:42;;;;;;;8.65;4.75;;;19.20;83.20;;;;;;4997528;28;20181;-75
2021/04/02 12:35:10;;;;;;;8.88;5.32;;;19.00;87.00;;;;;;5014183;28;20205;-76
2021/04/02 12:37:35;;;;;;;11.98;5.93;;;19.60;83.80;;;;;;5014842;28;20185;-75
2021/04/02 12:40:08;;;;;;;11.98;5.50;;;19.30;84.10;;;;;;5014625;28;20268;-76
2021/04/02 12:42:33;;;;;;;11.90;5.40;;;18.80;86.10;;;;;;5011077;28;20720;-76
2021/04/02 12:44:59;;;;;;;12.88;5.45;;;18.20;87.20;;;;;;5014580;28;20328;-76
2021/04/02 12:47:24;;;;;;;7.45;4.57;;;17.40;89.70;;;;;;4997441;28;20192;-76
2021/04/02 12:49:50;;;;;;;9.20;5.65;;;16.40;90.50;;;;;;4980410;28;20571;-76
2021/04/02 12:52:16;;;;;;;10.32;5.75;;;15.50;92.20;;;;;;4997525;28;20173;-76